EmailTwitter


Surface observations / Quebec / EGMC

Quebec | Canada | USA | France | UK | Europe | Elsewhere

Station
Display
Info & Location for EGMC | Help decoding METAR

EGMC SOUTHEND-ON-SEA -- UK
Raw surface observations for station EGMC
EGMC 191820Z 22005KT 9999 BKN026 10/05 Q1021=
EGMC 191750Z 22006KT 9999 BKN028 10/05 Q1021=
EGMC 191720Z 22006KT 9999 SCT028 10/05 Q1021=
EGMC 191650Z 21006KT 9999 FEW028 SCT038 11/06 Q1021=
EGMC 191620Z 27006KT 9999 FEW025 BKN037 11/06 Q1021=
EGMC 191550Z 27008KT 9999 BKN023 11/05 Q1021=
EGMC 191520Z 26008KT 9999 BKN023 11/05 Q1021=
EGMC 191450Z 28008KT 9999 BKN022 11/05 Q1021=
EGMC 191420Z 27007KT 9999 BKN022 11/05 Q1021=
EGMC 191350Z 27010KT 9999 BKN023 11/05 Q1021=
EGMC 191320Z 28009KT 9999 BKN024 12/06 Q1022=
EGMC 191250Z 27009KT 9999 BKN022 11/05 Q1022=
EGMC 191220Z 30008KT 9999 SCT022 BKN026 10/05 Q1022=
EGMC 191150Z 30008KT 9999 FEW023 BKN028 11/05 Q1022=
EGMC 191120Z 28010KT 9999 FEW024 BKN030 13/07 Q1022=
EGMC 191050Z 27013KT 9999 FEW015 10/05 Q1022=
EGMC 191020Z 27014KT 9999 FEW015 10/06 Q1022=
EGMC 190950Z 26011KT 9999 FEW040 09/05 Q1022=
EGMC 190920Z 25008KT 9999 FEW040 09/06 Q1022=
EGMC 190850Z 25010KT 9999 FEW045 08/05 Q1022=
EGMC 190820Z 26012KT 9999 FEW045 07/05 Q1022=
EGMC 190750Z 25011KT 9999 SCT040 06/04 Q1022=
EGMC 190720Z 24009KT 9999 FEW025 BKN040 06/03 Q1021=
EGMC 190650Z 25008KT 9999 FEW025 BKN038 06/03 Q1021=
EGMC 190620Z 23006KT 9999 SCT025 05/03 Q1021=
EGMC 190550Z 25007KT 9999 SCT032 04/02 Q1021=
EGMC 190520Z 21004KT 9999 NSC 03/00 Q1021=
EGMC 190450Z 22008KT 9999 NSC 05/02 Q1021=
EGMC 190350Z 26008KT 9999 FEW028 06/03 Q1022=
EGMC 190220Z 21007KT 9000 NSC 04/02 Q1022=
EGMC 190050Z 22008KT CAVOK 05/02 Q1023=
EGMC 182320Z 23008KT CAVOK 05/02 Q1023=
EGMC 182250Z 23009KT CAVOK 06/03 Q1023=
EGMC 182150Z 21009KT CAVOK 06/03 Q1023=
EGMC 182120Z 22009KT CAVOK 06/02 Q1023=
EGMC 182050Z 22009KT CAVOK 06/02 Q1023=
EGMC 182020Z 21010KT CAVOK 07/03 Q1023=
EGMC 181950Z 23008KT CAVOK 07/04 Q1024=
EGMC 181920Z 23008KT CAVOK 07/04 Q1024=
EGMC 181850Z 22008KT CAVOK 07/04 Q1023=
EGMC 181820Z 22005KT CAVOK 06/03 Q1023=